createdAt,value
2022-12-03T00:01:24.035Z,51.73
2022-12-03T00:03:55.530Z,48.20
2022-12-03T00:06:27.994Z,52.23
2022-12-03T00:08:58.228Z,50.63
2022-12-03T00:11:29.839Z,49.67
2022-12-03T00:14:02.314Z,47.97
2022-12-03T00:16:32.881Z,51.13
2022-12-03T00:19:06.798Z,49.80
2022-12-03T00:21:37.594Z,48.57
2022-12-03T00:24:10.084Z,55.40
2022-12-03T00:26:42.121Z,43.50
2022-12-03T00:29:15.644Z,44.43
2022-12-03T00:31:47.083Z,47.13
2022-12-03T00:34:17.750Z,48.73
2022-12-03T00:36:48.794Z,49.17
2022-12-03T00:39:19.454Z,51.63
2022-12-03T00:41:50.049Z,48.00
2022-12-03T00:44:20.727Z,52.47
2022-12-03T00:46:51.857Z,47.20
2022-12-03T00:49:22.911Z,51.43
2022-12-03T00:51:53.324Z,47.43
2022-12-03T00:54:29.964Z,50.77
2022-12-03T00:56:58.412Z,51.43
2022-12-03T00:59:29.092Z,45.53
2022-12-03T01:01:59.775Z,51.83
2022-12-03T01:04:32.179Z,53.90
2022-12-03T01:07:03.184Z,50.53
2022-12-03T01:09:35.443Z,52.47
2022-12-03T01:12:06.285Z,47.27
2022-12-03T01:14:38.084Z,53.20
2022-12-03T01:17:08.758Z,52.63
2022-12-03T01:19:44.986Z,51.87
2022-12-03T01:22:14.334Z,48.43
2022-12-03T01:24:44.856Z,53.23
2022-12-03T01:27:15.859Z,52.70
2022-12-03T01:29:46.533Z,57.53
2022-12-03T01:32:18.144Z,52.23
2022-12-03T01:34:53.297Z,51.13
2022-12-03T01:37:26.811Z,51.80
2022-12-03T01:39:58.870Z,53.93
2022-12-03T01:42:32.794Z,48.03
2022-12-03T01:45:04.712Z,51.07
2022-12-03T01:47:38.136Z,52.13
2022-12-03T01:50:14.451Z,51.03
2022-12-03T01:52:45.289Z,50.13
2022-12-03T01:55:19.180Z,54.63
2022-12-03T01:57:57.830Z,53.07
2022-12-03T02:00:29.547Z,54.20
2022-12-03T02:03:03.044Z,49.03
2022-12-03T02:05:35.016Z,43.83
2022-12-03T02:08:37.654Z,49.60
2022-12-03T02:11:32.616Z,55.10
2022-12-03T02:14:06.117Z,50.53
2022-12-03T02:16:38.660Z,52.80
2022-12-03T02:19:12.171Z,55.47
2022-12-03T02:22:04.232Z,48.13
2022-12-03T02:24:56.517Z,54.83
2022-12-03T02:27:29.246Z,51.03
2022-12-03T02:30:00.753Z,53.10
2022-12-03T02:32:31.430Z,50.00
2022-12-03T02:35:02.138Z,53.50
2022-12-03T02:37:35.908Z,52.97
2022-12-03T02:40:12.658Z,55.57
2022-12-03T02:42:45.208Z,49.37
2022-12-03T02:45:24.750Z,48.00
2022-12-03T02:48:13.479Z,51.27
2022-12-03T02:50:46.790Z,51.87
2022-12-03T02:53:21.502Z,47.30
2022-12-03T02:55:53.896Z,43.43
2022-12-03T02:58:26.334Z,48.27
2022-12-03T03:00:57.211Z,49.93
2022-12-03T03:03:30.581Z,47.90
2022-12-03T03:06:03.287Z,49.37
2022-12-03T03:08:34.219Z,44.00
2022-12-03T03:11:05.154Z,52.43
2022-12-03T03:13:36.817Z,53.00
2022-12-03T03:16:10.308Z,52.40
2022-12-03T03:18:42.021Z,51.10
2022-12-03T03:21:14.112Z,53.23
2022-12-03T03:23:44.594Z,48.83
2022-12-03T03:26:16.577Z,42.10
2022-12-03T03:28:50.027Z,47.07
2022-12-03T03:31:23.920Z,51.17
2022-12-03T03:33:54.670Z,46.23
2022-12-03T03:36:26.889Z,54.17
2022-12-03T03:38:59.011Z,51.23
2022-12-03T03:41:30.448Z,53.80
2022-12-03T03:44:02.279Z,55.70
2022-12-03T03:46:33.619Z,51.53
2022-12-03T03:49:06.442Z,54.00
2022-12-03T03:51:37.816Z,50.63
2022-12-03T03:54:09.510Z,55.53
2022-12-03T03:56:40.781Z,49.70
2022-12-03T03:59:11.380Z,50.63
2022-12-03T04:01:42.467Z,51.57
2022-12-03T04:04:19.835Z,49.60
2022-12-03T04:06:50.772Z,53.60
2022-12-03T04:09:21.454Z,52.03
2022-12-03T04:12:09.942Z,55.30
2022-12-03T04:14:41.683Z,52.37
2022-12-03T04:17:13.356Z,47.30
2022-12-03T04:19:43.929Z,51.73
2022-12-03T04:22:33.999Z,49.70
2022-12-03T04:25:24.650Z,47.77
2022-12-03T04:28:13.592Z,50.03
2022-12-03T04:30:44.194Z,51.43
2022-12-03T04:33:25.618Z,52.87
2022-12-03T04:35:56.513Z,50.03
2022-12-03T04:38:28.007Z,51.23
2022-12-03T04:41:01.258Z,53.03
2022-12-03T04:43:34.714Z,52.93
2022-12-03T04:46:05.327Z,58.07
2022-12-03T04:48:35.950Z,61.03
2022-12-03T04:51:08.012Z,56.00
2022-12-03T04:53:43.234Z,55.60
2022-12-03T04:56:10.706Z,51.97
2022-12-03T04:58:41.138Z,54.03
2022-12-03T05:01:13.997Z,52.57
2022-12-03T05:03:44.523Z,50.37
2022-12-03T05:06:16.760Z,51.57
2022-12-03T05:08:48.291Z,50.10
2022-12-03T05:11:19.993Z,53.23
2022-12-03T05:13:52.399Z,49.27
2022-12-03T05:16:23.473Z,51.83
2022-12-03T05:18:53.999Z,51.67
2022-12-03T05:21:24.983Z,51.50
2022-12-03T05:23:55.557Z,48.23
2022-12-03T05:26:26.549Z,60.43
2022-12-03T05:28:57.082Z,54.63
2022-12-03T05:31:29.654Z,55.20
2022-12-03T05:34:00.197Z,52.63
2022-12-03T05:36:31.136Z,54.37
2022-12-03T05:39:02.338Z,59.40
2022-12-03T05:41:50.815Z,56.30
2022-12-03T05:44:21.378Z,51.20
2022-12-03T05:46:51.976Z,53.23
2022-12-03T05:49:22.934Z,52.17
2022-12-03T05:51:58.271Z,57.13
2022-12-03T05:54:26.139Z,56.67
2022-12-03T05:56:58.206Z,57.73
2022-12-03T05:59:28.837Z,58.67
2022-12-03T06:02:00.731Z,53.43
2022-12-03T06:04:31.499Z,58.20
2022-12-03T06:07:02.165Z,58.90
2022-12-03T06:09:32.622Z,58.47
2022-12-03T06:12:03.146Z,58.57
2022-12-03T06:14:37.655Z,59.60
2022-12-03T06:17:08.380Z,58.13
2022-12-03T06:19:40.058Z,54.03
2022-12-03T06:22:10.668Z,62.67
2022-12-03T06:24:41.339Z,60.27
2022-12-03T06:27:15.588Z,62.43
2022-12-03T06:29:46.067Z,58.67
2022-12-03T06:32:16.944Z,62.57
2022-12-03T06:34:49.366Z,61.87
2022-12-03T06:37:19.825Z,59.03
2022-12-03T06:39:50.388Z,59.60
2022-12-03T06:42:22.518Z,67.87
2022-12-03T06:44:53.412Z,56.90
2022-12-03T06:47:24.297Z,63.03
2022-12-03T06:49:54.821Z,56.40
2022-12-03T06:52:25.370Z,57.13
2022-12-03T06:54:56.148Z,60.70
2022-12-03T06:57:27.024Z,56.20
2022-12-03T06:59:57.691Z,55.97
2022-12-03T07:02:29.788Z,60.33
2022-12-03T07:05:00.211Z,61.40
2022-12-03T07:07:30.912Z,60.80
2022-12-03T07:10:01.402Z,56.10
2022-12-03T07:12:33.929Z,59.97
2022-12-03T07:15:05.988Z,58.43
2022-12-03T07:17:36.637Z,60.57
2022-12-03T07:20:09.925Z,59.27
2022-12-03T07:22:40.307Z,62.90
2022-12-03T07:25:16.776Z,58.93
2022-12-03T07:27:46.952Z,64.63
2022-12-03T07:30:17.721Z,69.03
2022-12-03T07:32:48.484Z,62.83
2022-12-03T07:35:21.069Z,61.30
2022-12-03T07:37:51.518Z,62.37
2022-12-03T07:40:22.206Z,65.37
2022-12-03T07:42:52.653Z,60.23
2022-12-03T07:45:25.277Z,66.53
2022-12-03T07:47:56.135Z,63.97
2022-12-03T07:50:28.335Z,59.47
2022-12-03T07:53:00.276Z,58.57
2022-12-03T07:55:30.881Z,62.83
2022-12-03T07:58:01.703Z,59.80
2022-12-03T08:00:32.450Z,57.40
2022-12-03T08:03:04.606Z,60.30
2022-12-03T08:05:35.194Z,61.03
2022-12-03T08:08:07.387Z,61.50
2022-12-03T08:10:38.632Z,62.13
2022-12-03T08:13:15.799Z,65.47
2022-12-03T08:15:47.249Z,54.87
2022-12-03T08:18:22.893Z,65.50
2022-12-03T08:20:55.983Z,63.10
2022-12-03T08:23:30.465Z,57.33
2022-12-03T08:26:03.787Z,62.70
2022-12-03T08:28:35.676Z,59.77
2022-12-03T08:31:16.993Z,59.40
2022-12-03T08:33:49.921Z,65.67
2022-12-03T08:36:31.466Z,62.83
2022-12-03T08:39:05.348Z,58.77
2022-12-03T08:41:57.007Z,60.47
2022-12-03T08:44:37.608Z,64.27
2022-12-03T08:47:27.445Z,59.00
2022-12-03T08:50:02.770Z,62.00
2022-12-03T08:52:38.606Z,65.10
2022-12-03T08:55:33.465Z,64.23
2022-12-03T08:58:45.790Z,63.37
2022-12-03T09:01:34.614Z,62.47
2022-12-03T09:04:42.938Z,68.63
2022-12-03T09:07:17.339Z,67.07
2022-12-03T09:09:49.838Z,64.33
2022-12-03T09:12:20.709Z,62.93
2022-12-03T09:14:52.787Z,64.50
2022-12-03T09:17:23.986Z,69.03
2022-12-03T09:19:56.557Z,62.00
2022-12-03T09:22:29.060Z,66.63
2022-12-03T09:25:03.405Z,62.80
2022-12-03T09:27:39.824Z,59.33
2022-12-03T09:30:10.829Z,65.40
2022-12-03T09:32:43.873Z,59.80
2022-12-03T09:35:14.776Z,61.77
2022-12-03T09:37:46.755Z,64.73
2022-12-03T09:40:19.932Z,60.13
2022-12-03T09:42:52.420Z,58.87
2022-12-03T09:45:24.045Z,56.43
2022-12-03T09:47:55.627Z,61.00
2022-12-03T09:50:28.687Z,63.83
2022-12-03T09:53:04.040Z,56.87
2022-12-03T09:55:37.206Z,56.23
2022-12-03T09:58:17.819Z,55.47
2022-12-03T10:00:50.752Z,58.67
2022-12-03T10:03:29.695Z,62.70
2022-12-03T10:05:57.564Z,60.57
2022-12-03T10:08:32.155Z,63.13
2022-12-03T10:11:03.338Z,64.57
2022-12-03T10:13:37.174Z,63.10
2022-12-03T10:16:16.879Z,63.43
2022-12-03T10:18:54.343Z,60.20
2022-12-03T10:21:28.101Z,66.23
2022-12-03T10:24:25.742Z,58.03
2022-12-03T10:27:02.362Z,62.07
2022-12-03T10:29:36.976Z,56.97
2022-12-03T10:32:10.329Z,60.57
2022-12-03T10:34:43.856Z,58.67
2022-12-03T10:37:22.924Z,60.47
2022-12-03T10:39:59.659Z,57.20
2022-12-03T10:42:33.132Z,57.63
2022-12-03T10:45:18.556Z,62.10
2022-12-03T10:48:05.236Z,58.00
2022-12-03T10:50:37.685Z,63.00
2022-12-03T10:53:10.703Z,61.23
2022-12-03T10:55:44.891Z,64.50
2022-12-03T10:58:28.408Z,63.67
2022-12-03T11:01:04.026Z,59.60
2022-12-03T11:03:37.572Z,58.43
2022-12-03T11:06:10.023Z,58.87
2022-12-03T11:08:45.243Z,57.77
2022-12-03T11:11:26.902Z,55.07
2022-12-03T11:14:02.346Z,62.50
2022-12-03T11:16:45.232Z,65.17
2022-12-03T11:19:38.919Z,60.47
2022-12-03T11:22:12.422Z,64.77
2022-12-03T11:24:46.438Z,65.67
2022-12-03T11:27:20.934Z,58.80
2022-12-03T11:29:54.587Z,59.80
2022-12-03T11:32:40.562Z,59.73
2022-12-03T11:35:18.188Z,62.37
2022-12-03T11:37:48.614Z,57.63
2022-12-03T11:40:22.264Z,59.57
2022-12-03T11:42:54.668Z,64.33
2022-12-03T11:45:38.857Z,62.27
2022-12-03T11:48:16.970Z,61.13
2022-12-03T11:50:55.100Z,58.93
2022-12-03T11:53:27.921Z,60.17
2022-12-03T11:56:08.645Z,59.83
2022-12-03T11:58:42.327Z,65.90
2022-12-03T12:01:14.576Z,57.73
2022-12-03T12:03:47.870Z,59.37
2022-12-03T12:06:21.212Z,55.80
2022-12-03T12:08:59.893Z,56.97
2022-12-03T12:11:36.517Z,56.03
2022-12-03T12:14:12.124Z,60.20
2022-12-03T12:16:55.474Z,58.53
2022-12-03T12:19:32.228Z,55.10
2022-12-03T12:22:20.725Z,60.20
2022-12-03T12:24:54.340Z,56.83
2022-12-03T12:27:34.254Z,63.33
2022-12-03T12:30:15.655Z,62.13
2022-12-03T12:32:49.097Z,60.67
2022-12-03T12:35:27.964Z,55.33
2022-12-03T12:38:12.696Z,59.57
2022-12-03T12:40:45.715Z,57.47
2022-12-03T12:43:28.746Z,62.00
2022-12-03T12:46:18.647Z,59.23
2022-12-03T12:48:35.865Z,59.97
2022-12-03T12:51:15.230Z,62.60
2022-12-03T12:53:46.136Z,57.87
2022-12-03T12:56:28.308Z,60.50
2022-12-03T12:59:01.911Z,55.17
2022-12-03T13:01:35.110Z,55.90
2022-12-03T13:04:14.875Z,57.97
2022-12-03T13:06:48.068Z,64.40
2022-12-03T13:09:51.524Z,54.60
2022-12-03T13:12:24.832Z,51.77
2022-12-03T13:14:59.776Z,57.60
2022-12-03T13:17:32.249Z,57.13
2022-12-03T13:20:08.055Z,57.50
2022-12-03T13:22:38.206Z,63.43
2022-12-03T13:25:57.784Z,56.77
2022-12-03T13:28:03.100Z,62.20
2022-12-03T13:30:34.808Z,58.27
2022-12-03T13:33:09.062Z,59.27
2022-12-03T13:35:42.741Z,62.87
2022-12-03T13:38:17.741Z,63.60
2022-12-03T13:40:55.192Z,59.50
2022-12-03T13:43:28.900Z,60.17
2022-12-03T13:46:03.144Z,51.63
2022-12-03T13:48:36.447Z,60.13
2022-12-03T13:51:31.413Z,51.80
2022-12-03T13:54:05.858Z,54.03
2022-12-03T13:56:38.752Z,53.50
2022-12-03T13:59:09.293Z,54.30
2022-12-03T14:01:40.205Z,51.37
2022-12-03T14:04:12.582Z,55.53
2022-12-03T14:06:46.206Z,54.67
2022-12-03T14:09:20.747Z,53.23
2022-12-03T14:12:10.816Z,58.77
2022-12-03T14:14:43.005Z,60.07
2022-12-03T14:17:14.845Z,82.20
2022-12-03T14:19:46.117Z,74.80
2022-12-03T14:22:18.585Z,59.63
2022-12-03T14:24:51.443Z,60.60
2022-12-03T14:27:22.510Z,54.30
2022-12-03T14:29:53.795Z,64.40
2022-12-03T14:32:25.370Z,64.10
2022-12-03T14:34:56.720Z,61.13
2022-12-03T14:37:27.419Z,54.60
2022-12-03T14:39:58.283Z,52.77
2022-12-03T14:42:30.963Z,52.40
2022-12-03T14:45:03.135Z,53.80
2022-12-03T14:47:33.763Z,53.37
2022-12-03T14:50:07.128Z,58.23
2022-12-03T14:52:39.185Z,57.87
2022-12-03T14:55:10.015Z,50.20
2022-12-03T14:58:13.930Z,48.83
2022-12-03T15:00:45.333Z,52.43
2022-12-03T15:03:17.565Z,49.50
2022-12-03T15:05:48.175Z,53.00
2022-12-03T15:08:19.605Z,50.30
2022-12-03T15:10:55.118Z,53.90
2022-12-03T15:13:23.084Z,50.80
2022-12-03T15:15:53.879Z,52.93
2022-12-03T15:18:25.738Z,53.13
2022-12-03T15:20:56.440Z,47.23
2022-12-03T15:23:30.191Z,53.07
2022-12-03T15:26:00.765Z,52.20
2022-12-03T15:28:31.276Z,56.03
2022-12-03T15:31:02.924Z,49.20
2022-12-03T15:33:33.830Z,49.93
2022-12-03T15:36:06.117Z,47.27
2022-12-03T15:38:37.209Z,52.67
2022-12-03T15:41:25.626Z,51.17
2022-12-03T15:44:01.915Z,55.10
2022-12-03T15:46:37.361Z,49.53
2022-12-03T15:49:09.057Z,48.13
2022-12-03T15:51:39.748Z,53.13
2022-12-03T15:54:12.370Z,55.67
2022-12-03T15:56:45.699Z,56.63
2022-12-03T15:59:19.946Z,51.17
2022-12-03T16:01:51.680Z,57.67
2022-12-03T16:04:22.453Z,58.47
2022-12-03T16:06:54.186Z,58.50
2022-12-03T16:09:27.405Z,56.00
2022-12-03T16:11:57.675Z,51.73
2022-12-03T16:14:28.531Z,55.17
2022-12-03T16:17:03.006Z,56.07
2022-12-03T16:19:35.968Z,53.90
2022-12-03T16:22:09.374Z,57.80
2022-12-03T16:24:41.763Z,59.53
2022-12-03T16:27:13.491Z,59.50
2022-12-03T16:29:45.776Z,56.80
2022-12-03T16:32:16.520Z,52.60
2022-12-03T16:34:47.112Z,52.73
2022-12-03T16:37:20.711Z,53.07
2022-12-03T16:39:51.527Z,54.63
2022-12-03T16:42:24.860Z,53.00
2022-12-03T16:45:05.800Z,54.10
2022-12-03T16:47:38.132Z,61.03
2022-12-03T16:50:19.838Z,52.80
2022-12-03T16:52:45.828Z,61.73
2022-12-03T16:55:17.906Z,56.93
2022-12-03T16:57:52.712Z,52.63
2022-12-03T17:00:25.712Z,60.73
2022-12-03T17:02:58.624Z,54.03
2022-12-03T17:05:28.846Z,53.97
2022-12-03T17:07:59.983Z,61.03
2022-12-03T17:10:31.366Z,54.53
2022-12-03T17:13:09.665Z,58.47
2022-12-03T17:15:37.401Z,57.33
2022-12-03T17:18:10.416Z,57.15
2022-12-03T17:20:42.701Z,58.50
2022-12-03T17:23:13.877Z,56.70
2022-12-03T17:25:44.459Z,57.77
2022-12-03T17:28:15.274Z,61.30
2022-12-03T17:30:48.069Z,49.90
2022-12-03T17:33:18.711Z,54.07
2022-12-03T17:35:50.673Z,53.20
2022-12-03T17:38:24.752Z,55.40
2022-12-03T17:40:55.247Z,53.37
2022-12-03T17:43:26.916Z,55.80
2022-12-03T17:45:57.601Z,53.80
2022-12-03T17:48:31.239Z,62.83
2022-12-03T17:51:01.817Z,59.70
2022-12-03T17:53:36.542Z,57.07
2022-12-03T17:56:07.434Z,54.10
2022-12-03T17:58:40.622Z,51.77
2022-12-03T18:01:11.801Z,55.53
2022-12-03T18:03:45.911Z,54.63
2022-12-03T18:06:16.099Z,56.23
2022-12-03T18:08:47.904Z,53.73
2022-12-03T18:11:18.810Z,58.53
2022-12-03T18:13:50.787Z,54.90
2022-12-03T18:16:21.442Z,60.60
2022-12-03T18:18:56.663Z,55.67
2022-12-03T18:21:27.206Z,58.10
2022-12-03T18:24:01.111Z,59.00
2022-12-03T18:26:35.804Z,57.23
2022-12-03T18:29:10.260Z,61.20
2022-12-03T18:31:41.235Z,56.57
2022-12-03T18:34:13.665Z,57.40
2022-12-03T18:36:44.645Z,54.67
2022-12-03T18:39:30.884Z,58.67
2022-12-03T18:42:05.885Z,57.27
2022-12-03T18:44:38.671Z,54.50
2022-12-03T18:47:19.549Z,58.30
2022-12-03T18:49:50.986Z,61.83
2022-12-03T18:52:26.025Z,59.70
2022-12-03T18:54:56.509Z,57.43
2022-12-03T18:57:32.240Z,57.17
2022-12-03T19:00:02.916Z,59.77
2022-12-03T19:03:05.013Z,64.03
2022-12-03T19:05:09.097Z,57.93
2022-12-03T19:07:39.932Z,62.97
2022-12-03T19:10:21.333Z,62.43
2022-12-03T19:12:55.949Z,61.30
2022-12-03T19:15:27.836Z,59.93
2022-12-03T19:17:58.492Z,58.67
2022-12-03T19:20:30.191Z,63.07
2022-12-03T19:23:02.133Z,64.03
2022-12-03T19:25:32.602Z,64.47
2022-12-03T19:28:04.277Z,67.53
2022-12-03T19:30:35.182Z,63.67
2022-12-03T19:33:09.248Z,61.77
2022-12-03T19:35:44.250Z,59.83
2022-12-03T19:38:14.901Z,62.77
2022-12-03T19:41:02.665Z,60.03
2022-12-03T19:43:34.766Z,63.23
2022-12-03T19:46:10.114Z,58.30
2022-12-03T19:48:44.613Z,66.43
2022-12-03T19:51:35.426Z,64.30
2022-12-03T19:53:50.653Z,62.13
2022-12-03T19:56:24.554Z,62.70
2022-12-03T19:58:56.146Z,66.13
2022-12-03T20:01:29.806Z,62.67
2022-12-03T20:04:02.762Z,66.43
2022-12-03T20:06:37.392Z,64.70
2022-12-03T20:09:13.358Z,67.93
2022-12-03T20:11:45.632Z,66.50
2022-12-03T20:14:18.812Z,66.53
2022-12-03T20:16:49.438Z,66.40
2022-12-03T20:19:22.499Z,67.63
2022-12-03T20:21:56.279Z,60.90
2022-12-03T20:24:25.328Z,65.77
2022-12-03T20:26:55.923Z,65.30
2022-12-03T20:29:26.540Z,69.40
2022-12-03T20:32:02.361Z,71.07
2022-12-03T20:34:34.866Z,88.47
2022-12-03T20:37:06.393Z,67.50
2022-12-03T20:39:38.894Z,66.50
2022-12-03T20:42:13.556Z,68.30
2022-12-03T20:44:45.786Z,65.50
2022-12-03T20:47:17.324Z,62.67
2022-12-03T20:49:49.233Z,70.50
2022-12-03T20:52:19.801Z,70.17
2022-12-03T20:54:50.487Z,62.33
2022-12-03T20:57:22.039Z,63.63
2022-12-03T20:59:56.051Z,64.70
2022-12-03T21:02:26.660Z,63.63
2022-12-03T21:04:58.681Z,65.70
2022-12-03T21:07:30.822Z,65.23
2022-12-03T21:10:01.451Z,62.33
2022-12-03T21:12:32.077Z,66.07
2022-12-03T21:15:06.272Z,68.20
2022-12-03T21:17:40.424Z,63.80
2022-12-03T21:20:20.642Z,66.97
2022-12-03T21:22:54.272Z,73.10
2022-12-03T21:25:25.929Z,67.73
2022-12-03T21:27:58.882Z,71.27
2022-12-03T21:30:29.469Z,69.87
2022-12-03T21:33:00.119Z,69.87
2022-12-03T21:35:31.540Z,72.87
2022-12-03T21:38:02.050Z,76.67
2022-12-03T21:40:33.768Z,68.33
2022-12-03T21:43:04.280Z,71.93
2022-12-03T21:45:34.755Z,68.07
2022-12-03T21:48:05.255Z,74.03
2022-12-03T21:50:36.042Z,73.97
2022-12-03T21:53:06.624Z,67.60
2022-12-03T21:55:42.041Z,67.07
2022-12-03T21:58:12.771Z,72.87
2022-12-03T22:00:43.357Z,76.03
2022-12-03T22:03:13.974Z,75.77
2022-12-03T22:08:47.199Z,74.03
2022-12-03T22:11:21.075Z,78.87
2022-12-03T22:13:51.641Z,73.10
2022-12-03T22:16:23.058Z,74.10
2022-12-03T22:18:55.380Z,73.17
2022-12-03T22:21:28.725Z,75.30
2022-12-03T22:23:59.249Z,73.67
2022-12-03T22:26:35.122Z,75.57
2022-12-03T22:29:06.097Z,73.87
2022-12-03T22:31:39.013Z,73.37
2022-12-03T22:34:09.607Z,72.87
2022-12-03T22:36:41.130Z,66.07
2022-12-03T22:39:13.165Z,73.57
2022-12-03T22:41:45.539Z,76.87
2022-12-03T22:44:17.961Z,76.67
2022-12-03T22:46:48.694Z,75.10
2022-12-03T22:49:19.455Z,74.57
2022-12-03T22:51:50.876Z,83.50
2022-12-03T22:54:24.092Z,74.43
2022-12-03T22:56:54.212Z,74.00
2022-12-03T22:59:25.869Z,75.93
2022-12-03T23:01:56.372Z,74.80
2022-12-03T23:04:27.359Z,72.20
2022-12-03T23:06:58.255Z,66.20
2022-12-03T23:09:28.820Z,71.57
2022-12-03T23:12:01.943Z,75.63
2022-12-03T23:14:32.747Z,70.50
2022-12-03T23:17:03.408Z,78.57
2022-12-03T23:19:35.357Z,81.87
2022-12-03T23:22:05.906Z,75.77
2022-12-03T23:24:37.066Z,75.50
2022-12-03T23:27:07.595Z,77.37
2022-12-03T23:29:37.974Z,78.97
2022-12-03T23:32:09.964Z,72.87
2022-12-03T23:34:41.892Z,71.33
2022-12-03T23:37:13.596Z,76.13
2022-12-03T23:39:44.476Z,76.33
2022-12-03T23:42:15.493Z,74.17
2022-12-03T23:44:47.671Z,79.53
2022-12-03T23:47:21.301Z,78.20
2022-12-03T23:49:51.845Z,71.73
2022-12-03T23:52:24.153Z,83.87
2022-12-03T23:54:54.544Z,81.73
2022-12-03T23:57:25.155Z,74.10
2022-12-03T23:59:56.103Z,83.60
